sensor_id;sensor_type;location;lat;lon;timestamp;P1;durP1;ratioP1;P2;durP2;ratioP2
15354;SDS011;7777;52.254;9.618;2022-09-21T00:03:37;1.70;;;0.70;;
15354;SDS011;7777;52.254;9.618;2022-09-21T00:06:06;2.30;;;0.80;;
15354;SDS011;7777;52.254;9.618;2022-09-21T00:08:37;3.30;;;1.10;;
15354;SDS011;7777;52.254;9.618;2022-09-21T00:11:04;1.47;;;0.90;;
15354;SDS011;7777;52.254;9.618;2022-09-21T00:13:31;1.17;;;0.60;;
15354;SDS011;7777;52.254;9.618;2022-09-21T00:15:58;3.70;;;0.70;;
15354;SDS011;7777;52.254;9.618;2022-09-21T00:18:24;5.23;;;1.10;;
15354;SDS011;7777;52.254;9.618;2022-09-21T00:20:51;1.43;;;0.60;;
15354;SDS011;7777;52.254;9.618;2022-09-21T00:23:17;7.60;;;0.67;;
15354;SDS011;7777;52.254;9.618;2022-09-21T00:25:43;4.83;;;0.80;;
15354;SDS011;7777;52.254;9.618;2022-09-21T00:28:09;1.53;;;0.50;;
15354;SDS011;7777;52.254;9.618;2022-09-21T00:30:36;6.17;;;0.60;;
15354;SDS011;7777;52.254;9.618;2022-09-21T00:33:02;2.30;;;0.70;;
15354;SDS011;7777;52.254;9.618;2022-09-21T00:35:27;3.27;;;0.90;;
15354;SDS011;7777;52.254;9.618;2022-09-21T00:37:53;5.77;;;0.90;;
15354;SDS011;7777;52.254;9.618;2022-09-21T00:40:19;3.07;;;1.00;;
15354;SDS011;7777;52.254;9.618;2022-09-21T00:42:45;2.30;;;0.70;;
15354;SDS011;7777;52.254;9.618;2022-09-21T00:45:11;4.30;;;0.77;;
15354;SDS011;7777;52.254;9.618;2022-09-21T00:47:45;3.33;;;0.70;;
15354;SDS011;7777;52.254;9.618;2022-09-21T00:50:16;2.20;;;0.80;;
15354;SDS011;7777;52.254;9.618;2022-09-21T00:52:51;2.07;;;1.00;;
15354;SDS011;7777;52.254;9.618;2022-09-21T00:55:25;4.87;;;0.70;;
15354;SDS011;7777;52.254;9.618;2022-09-21T00:57:56;2.73;;;0.63;;
15354;SDS011;7777;52.254;9.618;2022-09-21T01:00:28;4.13;;;1.00;;
15354;SDS011;7777;52.254;9.618;2022-09-21T01:02:54;2.90;;;0.60;;
15354;SDS011;7777;52.254;9.618;2022-09-21T01:05:25;2.20;;;1.03;;
15354;SDS011;7777;52.254;9.618;2022-09-21T01:07:52;1.50;;;0.67;;
15354;SDS011;7777;52.254;9.618;2022-09-21T01:10:21;2.90;;;0.77;;
15354;SDS011;7777;52.254;9.618;2022-09-21T01:12:54;3.90;;;1.00;;
15354;SDS011;7777;52.254;9.618;2022-09-21T01:16:11;1.63;;;0.80;;
15354;SDS011;7777;52.254;9.618;2022-09-21T01:18:50;8.50;;;1.23;;
15354;SDS011;7777;52.254;9.618;2022-09-21T01:21:37;4.53;;;1.10;;
15354;SDS011;7777;52.254;9.618;2022-09-21T01:24:42;2.00;;;0.97;;
15354;SDS011;7777;52.254;9.618;2022-09-21T01:30:21;6.23;;;0.80;;
15354;SDS011;7777;52.254;9.618;2022-09-21T01:32:54;8.23;;;0.90;;
15354;SDS011;7777;52.254;9.618;2022-09-21T01:35:58;3.57;;;0.70;;
15354;SDS011;7777;52.254;9.618;2022-09-21T01:38:35;5.23;;;1.17;;
15354;SDS011;7777;52.254;9.618;2022-09-21T01:41:07;6.20;;;1.50;;
15354;SDS011;7777;52.254;9.618;2022-09-21T01:43:38;2.43;;;0.80;;
15354;SDS011;7777;52.254;9.618;2022-09-21T01:46:10;4.30;;;0.90;;
15354;SDS011;7777;52.254;9.618;2022-09-21T01:48:43;3.10;;;1.03;;
15354;SDS011;7777;52.254;9.618;2022-09-21T01:51:12;3.43;;;0.70;;
15354;SDS011;7777;52.254;9.618;2022-09-21T01:56:26;3.80;;;0.80;;
15354;SDS011;7777;52.254;9.618;2022-09-21T01:59:00;2.03;;;0.90;;
15354;SDS011;7777;52.254;9.618;2022-09-21T02:01:50;5.87;;;0.83;;
15354;SDS011;7777;52.254;9.618;2022-09-21T02:04:21;3.50;;;1.27;;
15354;SDS011;7777;52.254;9.618;2022-09-21T02:06:48;5.20;;;1.10;;
15354;SDS011;7777;52.254;9.618;2022-09-21T02:09:15;1.70;;;0.77;;
15354;SDS011;7777;52.254;9.618;2022-09-21T02:11:42;4.23;;;0.80;;
15354;SDS011;7777;52.254;9.618;2022-09-21T02:14:16;3.30;;;1.07;;
15354;SDS011;7777;52.254;9.618;2022-09-21T02:17:04;2.60;;;0.80;;
15354;SDS011;7777;52.254;9.618;2022-09-21T02:20:05;1.63;;;0.73;;
15354;SDS011;7777;52.254;9.618;2022-09-21T02:22:34;2.10;;;0.73;;
15354;SDS011;7777;52.254;9.618;2022-09-21T02:25:10;4.77;;;1.13;;
15354;SDS011;7777;52.254;9.618;2022-09-21T02:30:33;3.03;;;0.70;;
15354;SDS011;7777;52.254;9.618;2022-09-21T02:33:07;2.37;;;0.90;;
15354;SDS011;7777;52.254;9.618;2022-09-21T02:35:49;3.97;;;0.73;;
15354;SDS011;7777;52.254;9.618;2022-09-21T02:46:30;2.57;;;1.17;;
15354;SDS011;7777;52.254;9.618;2022-09-21T02:49:15;5.30;;;1.23;;
15354;SDS011;7777;52.254;9.618;2022-09-21T02:51:50;2.43;;;0.63;;
15354;SDS011;7777;52.254;9.618;2022-09-21T02:54:23;3.17;;;0.70;;
15354;SDS011;7777;52.254;9.618;2022-09-21T02:56:53;2.40;;;0.60;;
15354;SDS011;7777;52.254;9.618;2022-09-21T02:59:21;2.77;;;0.90;;
15354;SDS011;7777;52.254;9.618;2022-09-21T03:01:47;3.67;;;0.80;;
15354;SDS011;7777;52.254;9.618;2022-09-21T03:04:15;1.67;;;0.70;;
15354;SDS011;7777;52.254;9.618;2022-09-21T03:06:41;1.37;;;0.57;;
15354;SDS011;7777;52.254;9.618;2022-09-21T03:09:07;2.10;;;0.80;;
15354;SDS011;7777;52.254;9.618;2022-09-21T03:11:33;1.40;;;0.70;;
15354;SDS011;7777;52.254;9.618;2022-09-21T03:14:03;3.20;;;0.83;;
15354;SDS011;7777;52.254;9.618;2022-09-21T03:16:35;4.17;;;1.13;;
15354;SDS011;7777;52.254;9.618;2022-09-21T03:19:02;5.23;;;1.10;;
15354;SDS011;7777;52.254;9.618;2022-09-21T03:21:29;2.67;;;0.80;;
15354;SDS011;7777;52.254;9.618;2022-09-21T03:23:56;4.20;;;0.80;;
15354;SDS011;7777;52.254;9.618;2022-09-21T03:26:22;5.70;;;0.73;;
15354;SDS011;7777;52.254;9.618;2022-09-21T03:28:48;1.70;;;0.70;;
15354;SDS011;7777;52.254;9.618;2022-09-21T03:31:14;2.17;;;0.80;;
15354;SDS011;7777;52.254;9.618;2022-09-21T03:33:41;3.63;;;1.07;;
15354;SDS011;7777;52.254;9.618;2022-09-21T03:36:06;3.07;;;1.30;;
15354;SDS011;7777;52.254;9.618;2022-09-21T03:38:33;1.40;;;0.60;;
15354;SDS011;7777;52.254;9.618;2022-09-21T03:40:59;4.73;;;0.80;;
15354;SDS011;7777;52.254;9.618;2022-09-21T03:43:24;3.60;;;1.40;;
15354;SDS011;7777;52.254;9.618;2022-09-21T03:45:51;2.90;;;0.87;;
15354;SDS011;7777;52.254;9.618;2022-09-21T03:48:17;1.47;;;0.60;;
15354;SDS011;7777;52.254;9.618;2022-09-21T03:50:43;2.63;;;1.03;;
15354;SDS011;7777;52.254;9.618;2022-09-21T03:53:09;2.80;;;0.80;;
15354;SDS011;7777;52.254;9.618;2022-09-21T03:55:35;2.53;;;0.60;;
15354;SDS011;7777;52.254;9.618;2022-09-21T03:58:01;2.63;;;0.67;;
15354;SDS011;7777;52.254;9.618;2022-09-21T04:00:27;0.50;;;0.50;;
15354;SDS011;7777;52.254;9.618;2022-09-21T04:02:54;3.67;;;1.13;;
15354;SDS011;7777;52.254;9.618;2022-09-21T04:05:20;0.77;;;0.57;;
15354;SDS011;7777;52.254;9.618;2022-09-21T04:07:46;3.07;;;0.60;;
15354;SDS011;7777;52.254;9.618;2022-09-21T04:10:13;2.27;;;0.90;;
15354;SDS011;7777;52.254;9.618;2022-09-21T04:12:42;1.43;;;0.60;;
15354;SDS011;7777;52.254;9.618;2022-09-21T04:15:11;2.33;;;1.10;;
15354;SDS011;7777;52.254;9.618;2022-09-21T04:17:43;1.87;;;0.60;;
15354;SDS011;7777;52.254;9.618;2022-09-21T04:20:10;1.87;;;0.90;;
15354;SDS011;7777;52.254;9.618;2022-09-21T04:22:36;2.70;;;0.93;;
15354;SDS011;7777;52.254;9.618;2022-09-21T04:25:03;3.37;;;1.00;;
15354;SDS011;7777;52.254;9.618;2022-09-21T04:27:30;1.70;;;0.83;;
15354;SDS011;7777;52.254;9.618;2022-09-21T04:29:57;2.17;;;0.80;;
15354;SDS011;7777;52.254;9.618;2022-09-21T04:32:24;2.00;;;0.70;;
15354;SDS011;7777;52.254;9.618;2022-09-21T04:34:50;2.37;;;0.80;;
15354;SDS011;7777;52.254;9.618;2022-09-21T04:37:16;2.97;;;1.20;;
15354;SDS011;7777;52.254;9.618;2022-09-21T04:39:42;4.63;;;1.30;;
15354;SDS011;7777;52.254;9.618;2022-09-21T04:42:08;5.20;;;1.00;;
15354;SDS011;7777;52.254;9.618;2022-09-21T04:44:34;4.20;;;1.30;;
15354;SDS011;7777;52.254;9.618;2022-09-21T04:47:01;2.57;;;0.90;;
15354;SDS011;7777;52.254;9.618;2022-09-21T04:49:26;4.33;;;0.97;;
15354;SDS011;7777;52.254;9.618;2022-09-21T04:51:52;2.97;;;1.27;;
15354;SDS011;7777;52.254;9.618;2022-09-21T04:54:18;2.50;;;1.17;;
15354;SDS011;7777;52.254;9.618;2022-09-21T04:56:45;4.53;;;1.50;;
15354;SDS011;7777;52.254;9.618;2022-09-21T04:59:10;2.50;;;1.30;;
15354;SDS011;7777;52.254;9.618;2022-09-21T05:01:36;3.53;;;1.57;;
15354;SDS011;7777;52.254;9.618;2022-09-21T05:04:02;3.27;;;1.43;;
15354;SDS011;7777;52.254;9.618;2022-09-21T05:06:28;2.70;;;1.30;;
15354;SDS011;7777;52.254;9.618;2022-09-21T05:08:55;2.50;;;1.20;;
15354;SDS011;7777;52.254;9.618;2022-09-21T05:11:39;4.20;;;1.57;;
15354;SDS011;7777;52.254;9.618;2022-09-21T05:14:05;3.13;;;1.30;;
15354;SDS011;7777;52.254;9.618;2022-09-21T05:16:31;2.10;;;1.33;;
15354;SDS011;7777;52.254;9.618;2022-09-21T05:18:57;4.27;;;1.73;;
15354;SDS011;7777;52.254;9.618;2022-09-21T05:21:23;4.07;;;1.87;;
15354;SDS011;7777;52.254;9.618;2022-09-21T05:23:49;3.60;;;1.97;;
15354;SDS011;7777;52.254;9.618;2022-09-21T05:26:15;3.60;;;1.97;;
15354;SDS011;7777;52.254;9.618;2022-09-21T05:28:41;2.40;;;1.50;;
15354;SDS011;7777;52.254;9.618;2022-09-21T05:33:56;4.23;;;1.77;;
15354;SDS011;7777;52.254;9.618;2022-09-21T05:39:29;2.20;;;1.40;;
15354;SDS011;7777;52.254;9.618;2022-09-21T05:41:55;4.17;;;1.80;;
15354;SDS011;7777;52.254;9.618;2022-09-21T05:44:21;4.20;;;1.90;;
15354;SDS011;7777;52.254;9.618;2022-09-21T05:46:49;2.80;;;1.70;;
15354;SDS011;7777;52.254;9.618;2022-09-21T05:50:05;6.70;;;2.17;;
15354;SDS011;7777;52.254;9.618;2022-09-21T05:58:40;3.40;;;1.63;;
15354;SDS011;7777;52.254;9.618;2022-09-21T06:01:36;4.07;;;1.67;;
15354;SDS011;7777;52.254;9.618;2022-09-21T06:04:18;5.50;;;2.03;;
15354;SDS011;7777;52.254;9.618;2022-09-21T06:06:44;3.37;;;2.40;;
15354;SDS011;7777;52.254;9.618;2022-09-21T06:09:11;3.97;;;2.07;;
15354;SDS011;7777;52.254;9.618;2022-09-21T06:11:36;5.40;;;2.37;;
15354;SDS011;7777;52.254;9.618;2022-09-21T06:14:02;5.50;;;2.53;;
15354;SDS011;7777;52.254;9.618;2022-09-21T06:16:37;2.93;;;2.10;;
15354;SDS011;7777;52.254;9.618;2022-09-21T06:19:11;5.17;;;2.13;;
15354;SDS011;7777;52.254;9.618;2022-09-21T06:21:37;7.40;;;2.40;;
15354;SDS011;7777;52.254;9.618;2022-09-21T06:24:03;8.60;;;2.70;;
15354;SDS011;7777;52.254;9.618;2022-09-21T06:26:29;5.97;;;3.50;;
15354;SDS011;7777;52.254;9.618;2022-09-21T06:28:54;4.97;;;3.50;;
15354;SDS011;7777;52.254;9.618;2022-09-21T06:31:20;9.10;;;4.70;;
15354;SDS011;7777;52.254;9.618;2022-09-21T06:33:46;8.57;;;4.30;;
15354;SDS011;7777;52.254;9.618;2022-09-21T06:36:12;7.83;;;4.30;;
15354;SDS011;7777;52.254;9.618;2022-09-21T06:38:39;6.80;;;4.53;;
15354;SDS011;7777;52.254;9.618;2022-09-21T06:41:04;7.30;;;3.40;;
15354;SDS011;7777;52.254;9.618;2022-09-21T06:43:30;7.77;;;4.13;;
15354;SDS011;7777;52.254;9.618;2022-09-21T06:45:59;5.40;;;3.27;;
15354;SDS011;7777;52.254;9.618;2022-09-21T06:48:26;6.17;;;4.07;;
15354;SDS011;7777;52.254;9.618;2022-09-21T06:50:57;8.83;;;4.13;;
15354;SDS011;7777;52.254;9.618;2022-09-21T06:53:25;7.40;;;3.87;;
15354;SDS011;7777;52.254;9.618;2022-09-21T06:55:52;5.13;;;3.00;;
15354;SDS011;7777;52.254;9.618;2022-09-21T06:58:18;5.93;;;2.83;;
15354;SDS011;7777;52.254;9.618;2022-09-21T07:00:44;5.10;;;2.87;;
15354;SDS011;7777;52.254;9.618;2022-09-21T07:03:10;11.77;;;2.80;;
15354;SDS011;7777;52.254;9.618;2022-09-21T07:05:39;6.03;;;2.63;;
15354;SDS011;7777;52.254;9.618;2022-09-21T07:08:09;5.47;;;1.90;;
15354;SDS011;7777;52.254;9.618;2022-09-21T07:10:34;4.03;;;1.43;;
15354;SDS011;7777;52.254;9.618;2022-09-21T07:13:03;3.57;;;1.57;;
15354;SDS011;7777;52.254;9.618;2022-09-21T07:15:30;5.40;;;1.50;;
15354;SDS011;7777;52.254;9.618;2022-09-21T07:17:56;5.17;;;2.20;;
15354;SDS011;7777;52.254;9.618;2022-09-21T07:20:22;5.87;;;1.83;;
15354;SDS011;7777;52.254;9.618;2022-09-21T07:22:48;3.50;;;1.20;;
15354;SDS011;7777;52.254;9.618;2022-09-21T07:25:14;7.93;;;1.50;;
15354;SDS011;7777;52.254;9.618;2022-09-21T07:27:40;6.57;;;2.17;;
15354;SDS011;7777;52.254;9.618;2022-09-21T07:30:06;5.90;;;1.97;;
15354;SDS011;7777;52.254;9.618;2022-09-21T07:32:33;7.60;;;2.20;;
15354;SDS011;7777;52.254;9.618;2022-09-21T07:35:00;4.63;;;1.67;;
15354;SDS011;7777;52.254;9.618;2022-09-21T07:37:26;6.33;;;1.90;;
15354;SDS011;7777;52.254;9.618;2022-09-21T07:39:52;5.60;;;1.33;;
15354;SDS011;7777;52.254;9.618;2022-09-21T07:42:19;5.63;;;1.40;;
15354;SDS011;7777;52.254;9.618;2022-09-21T07:44:46;7.87;;;1.93;;
15354;SDS011;7777;52.254;9.618;2022-09-21T07:47:13;6.33;;;1.60;;
15354;SDS011;7777;52.254;9.618;2022-09-21T07:49:39;6.60;;;2.03;;
15354;SDS011;7777;52.254;9.618;2022-09-21T07:52:05;8.00;;;1.90;;
15354;SDS011;7777;52.254;9.618;2022-09-21T07:54:32;6.03;;;1.60;;
15354;SDS011;7777;52.254;9.618;2022-09-21T07:56:59;7.80;;;2.53;;
15354;SDS011;7777;52.254;9.618;2022-09-21T07:59:44;4.77;;;2.13;;
15354;SDS011;7777;52.254;9.618;2022-09-21T08:02:10;6.33;;;2.53;;
15354;SDS011;7777;52.254;9.618;2022-09-21T08:04:36;8.67;;;2.33;;
15354;SDS011;7777;52.254;9.618;2022-09-21T08:07:02;8.23;;;2.00;;
15354;SDS011;7777;52.254;9.618;2022-09-21T08:09:28;5.10;;;1.80;;
15354;SDS011;7777;52.254;9.618;2022-09-21T08:11:54;4.53;;;1.80;;
15354;SDS011;7777;52.254;9.618;2022-09-21T08:14:21;5.10;;;1.43;;
15354;SDS011;7777;52.254;9.618;2022-09-21T08:16:46;5.93;;;1.80;;
15354;SDS011;7777;52.254;9.618;2022-09-21T08:19:13;9.37;;;2.23;;
15354;SDS011;7777;52.254;9.618;2022-09-21T08:21:41;4.00;;;1.70;;
15354;SDS011;7777;52.254;9.618;2022-09-21T08:24:08;10.27;;;2.10;;
15354;SDS011;7777;52.254;9.618;2022-09-21T08:26:34;8.00;;;1.70;;
15354;SDS011;7777;52.254;9.618;2022-09-21T08:29:00;5.33;;;1.70;;
15354;SDS011;7777;52.254;9.618;2022-09-21T08:31:27;11.73;;;2.03;;
15354;SDS011;7777;52.254;9.618;2022-09-21T08:33:53;10.10;;;2.00;;
15354;SDS011;7777;52.254;9.618;2022-09-21T08:36:21;2.37;;;1.20;;
15354;SDS011;7777;52.254;9.618;2022-09-21T08:38:47;8.03;;;1.87;;
15354;SDS011;7777;52.254;9.618;2022-09-21T08:41:16;8.03;;;1.63;;
15354;SDS011;7777;52.254;9.618;2022-09-21T08:43:48;7.23;;;2.13;;
15354;SDS011;7777;52.254;9.618;2022-09-21T08:46:21;8.57;;;1.80;;
15354;SDS011;7777;52.254;9.618;2022-09-21T08:49:09;5.97;;;1.57;;
15354;SDS011;7777;52.254;9.618;2022-09-21T08:57:28;8.07;;;2.33;;
15354;SDS011;7777;52.254;9.618;2022-09-21T08:59:56;9.33;;;1.83;;
15354;SDS011;7777;52.254;9.618;2022-09-21T09:05:46;5.33;;;1.57;;
15354;SDS011;7777;52.254;9.618;2022-09-21T09:11:08;7.33;;;1.90;;
15354;SDS011;7777;52.254;9.618;2022-09-21T09:17:28;5.17;;;1.40;;
15354;SDS011;7777;52.254;9.618;2022-09-21T09:22:39;6.03;;;2.10;;
15354;SDS011;7777;52.254;9.618;2022-09-21T09:25:18;7.43;;;1.77;;
15354;SDS011;7777;52.254;9.618;2022-09-21T09:27:49;5.17;;;1.80;;
15354;SDS011;7777;52.254;9.618;2022-09-21T09:30:24;9.80;;;1.70;;
15354;SDS011;7777;52.254;9.618;2022-09-21T09:33:13;5.43;;;1.20;;
15354;SDS011;7777;52.254;9.618;2022-09-21T09:38:36;8.90;;;1.23;;
15354;SDS011;7777;52.254;9.618;2022-09-21T09:52:46;5.83;;;1.43;;
15354;SDS011;7777;52.254;9.618;2022-09-21T09:55:22;5.73;;;1.00;;
15354;SDS011;7777;52.254;9.618;2022-09-21T09:57:54;3.23;;;0.93;;
15354;SDS011;7777;52.254;9.618;2022-09-21T10:00:20;9.67;;;1.73;;
15354;SDS011;7777;52.254;9.618;2022-09-21T10:05:33;6.90;;;1.20;;
15354;SDS011;7777;52.254;9.618;2022-09-21T10:08:02;8.37;;;1.60;;
15354;SDS011;7777;52.254;9.618;2022-09-21T10:15:50;4.97;;;0.97;;
15354;SDS011;7777;52.254;9.618;2022-09-21T10:24:03;5.77;;;0.80;;
15354;SDS011;7777;52.254;9.618;2022-09-21T10:26:33;4.83;;;1.27;;
15354;SDS011;7777;52.254;9.618;2022-09-21T10:31:53;2.73;;;0.90;;
15354;SDS011;7777;52.254;9.618;2022-09-21T10:34:28;5.73;;;1.33;;
15354;SDS011;7777;52.254;9.618;2022-09-21T10:36:58;6.43;;;1.07;;
15354;SDS011;7777;52.254;9.618;2022-09-21T10:44:39;6.30;;;1.23;;
15354;SDS011;7777;52.254;9.618;2022-09-21T10:47:15;3.40;;;1.10;;
15354;SDS011;7777;52.254;9.618;2022-09-21T10:49:59;6.23;;;1.40;;
15354;SDS011;7777;52.254;9.618;2022-09-21T10:52:33;3.00;;;1.13;;
15354;SDS011;7777;52.254;9.618;2022-09-21T10:55:03;3.50;;;1.00;;
15354;SDS011;7777;52.254;9.618;2022-09-21T10:57:32;5.90;;;1.37;;
15354;SDS011;7777;52.254;9.618;2022-09-21T11:00:11;4.87;;;1.17;;
15354;SDS011;7777;52.254;9.618;2022-09-21T11:02:45;8.63;;;1.10;;
15354;SDS011;7777;52.254;9.618;2022-09-21T11:05:24;5.23;;;1.37;;
15354;SDS011;7777;52.254;9.618;2022-09-21T11:07:56;4.10;;;1.07;;
15354;SDS011;7777;52.254;9.618;2022-09-21T11:16:44;7.70;;;1.90;;
15354;SDS011;7777;52.254;9.618;2022-09-21T11:19:26;7.10;;;1.60;;
15354;SDS011;7777;52.254;9.618;2022-09-21T11:28:21;4.07;;;1.00;;
15354;SDS011;7777;52.254;9.618;2022-09-21T11:36:39;3.83;;;1.43;;
15354;SDS011;7777;52.254;9.618;2022-09-21T11:48:38;3.60;;;1.23;;
15354;SDS011;7777;52.254;9.618;2022-09-21T11:57:20;3.17;;;1.00;;
15354;SDS011;7777;52.254;9.618;2022-09-21T12:00:18;2.30;;;0.90;;
15354;SDS011;7777;52.254;9.618;2022-09-21T12:11:50;2.57;;;0.87;;
15354;SDS011;7777;52.254;9.618;2022-09-21T12:14:35;5.17;;;1.10;;
15354;SDS011;7777;52.254;9.618;2022-09-21T12:23:11;4.33;;;1.00;;
15354;SDS011;7777;52.254;9.618;2022-09-21T12:25:45;5.30;;;1.20;;
15354;SDS011;7777;52.254;9.618;2022-09-21T12:28:24;4.47;;;1.07;;
15354;SDS011;7777;52.254;9.618;2022-09-21T12:31:00;3.43;;;1.00;;
15354;SDS011;7777;52.254;9.618;2022-09-21T12:33:45;5.33;;;1.80;;
15354;SDS011;7777;52.254;9.618;2022-09-21T12:36:34;9.43;;;1.70;;
15354;SDS011;7777;52.254;9.618;2022-09-21T12:39:28;6.13;;;1.93;;
15354;SDS011;7777;52.254;9.618;2022-09-21T12:45:16;5.23;;;1.63;;
15354;SDS011;7777;52.254;9.618;2022-09-21T12:47:55;9.07;;;1.13;;
15354;SDS011;7777;52.254;9.618;2022-09-21T12:50:38;4.47;;;0.90;;
15354;SDS011;7777;52.254;9.618;2022-09-21T12:53:34;3.83;;;0.90;;
15354;SDS011;7777;52.254;9.618;2022-09-21T12:56:09;5.20;;;1.10;;
15354;SDS011;7777;52.254;9.618;2022-09-21T13:07:27;6.47;;;1.33;;
15354;SDS011;7777;52.254;9.618;2022-09-21T13:10:18;3.90;;;0.83;;
15354;SDS011;7777;52.254;9.618;2022-09-21T13:13:06;7.97;;;1.73;;
15354;SDS011;7777;52.254;9.618;2022-09-21T13:15:43;7.73;;;1.27;;
15354;SDS011;7777;52.254;9.618;2022-09-21T13:18:26;5.93;;;1.47;;
15354;SDS011;7777;52.254;9.618;2022-09-21T13:20:58;3.90;;;1.03;;
15354;SDS011;7777;52.254;9.618;2022-09-21T13:23:55;4.20;;;1.60;;
15354;SDS011;7777;52.254;9.618;2022-09-21T13:34:37;2.80;;;1.00;;
15354;SDS011;7777;52.254;9.618;2022-09-21T13:47:29;4.67;;;1.27;;
15354;SDS011;7777;52.254;9.618;2022-09-21T13:52:44;3.83;;;1.07;;
15354;SDS011;7777;52.254;9.618;2022-09-21T13:58:06;5.07;;;1.10;;
15354;SDS011;7777;52.254;9.618;2022-09-21T14:00:55;2.90;;;0.90;;
15354;SDS011;7777;52.254;9.618;2022-09-21T14:03:26;4.60;;;1.50;;
15354;SDS011;7777;52.254;9.618;2022-09-21T14:06:04;3.87;;;1.10;;
15354;SDS011;7777;52.254;9.618;2022-09-21T14:08:38;4.07;;;1.30;;
15354;SDS011;7777;52.254;9.618;2022-09-21T14:11:20;3.30;;;1.20;;
15354;SDS011;7777;52.254;9.618;2022-09-21T14:17:00;2.27;;;0.93;;
15354;SDS011;7777;52.254;9.618;2022-09-21T14:22:54;5.27;;;1.43;;
15354;SDS011;7777;52.254;9.618;2022-09-21T14:25:19;5.50;;;1.20;;
15354;SDS011;7777;52.254;9.618;2022-09-21T14:27:51;3.70;;;1.20;;
15354;SDS011;7777;52.254;9.618;2022-09-21T14:30:28;2.93;;;0.97;;
15354;SDS011;7777;52.254;9.618;2022-09-21T14:35:37;2.90;;;1.20;;
15354;SDS011;7777;52.254;9.618;2022-09-21T14:38:26;3.17;;;1.30;;
15354;SDS011;7777;52.254;9.618;2022-09-21T14:41:00;2.37;;;1.10;;
15354;SDS011;7777;52.254;9.618;2022-09-21T14:43:32;4.07;;;1.27;;
15354;SDS011;7777;52.254;9.618;2022-09-21T14:57:48;5.57;;;1.30;;
15354;SDS011;7777;52.254;9.618;2022-09-21T15:00:24;4.03;;;1.13;;
15354;SDS011;7777;52.254;9.618;2022-09-21T15:06:51;1.60;;;0.70;;
15354;SDS011;7777;52.254;9.618;2022-09-21T15:10:09;4.33;;;1.50;;
15354;SDS011;7777;52.254;9.618;2022-09-21T15:21:45;6.03;;;1.77;;
15354;SDS011;7777;52.254;9.618;2022-09-21T15:26:49;5.33;;;1.50;;
15354;SDS011;7777;52.254;9.618;2022-09-21T15:29:20;4.00;;;1.57;;
15354;SDS011;7777;52.254;9.618;2022-09-21T15:31:57;11.43;;;1.20;;
15354;SDS011;7777;52.254;9.618;2022-09-21T15:34:24;0.90;;;0.60;;
15354;SDS011;7777;52.254;9.618;2022-09-21T15:36:50;2.13;;;0.70;;
15354;SDS011;7777;52.254;9.618;2022-09-21T15:39:24;2.33;;;1.00;;
15354;SDS011;7777;52.254;9.618;2022-09-21T15:44:44;2.73;;;0.80;;
15354;SDS011;7777;52.254;9.618;2022-09-21T15:47:17;1.80;;;0.67;;
15354;SDS011;7777;52.254;9.618;2022-09-21T15:49:48;3.73;;;0.90;;
15354;SDS011;7777;52.254;9.618;2022-09-21T15:52:21;3.33;;;0.70;;
15354;SDS011;7777;52.254;9.618;2022-09-21T15:54:51;2.23;;;0.83;;
15354;SDS011;7777;52.254;9.618;2022-09-21T15:57:28;2.67;;;0.87;;
15354;SDS011;7777;52.254;9.618;2022-09-21T16:00:02;7.60;;;2.20;;
15354;SDS011;7777;52.254;9.618;2022-09-21T16:02:39;1.90;;;1.00;;
15354;SDS011;7777;52.254;9.618;2022-09-21T16:05:14;3.43;;;0.70;;
15354;SDS011;7777;52.254;9.618;2022-09-21T16:07:41;4.90;;;1.20;;
15354;SDS011;7777;52.254;9.618;2022-09-21T16:10:33;3.87;;;1.00;;
15354;SDS011;7777;52.254;9.618;2022-09-21T16:13:11;2.03;;;0.90;;
15354;SDS011;7777;52.254;9.618;2022-09-21T16:24:09;2.97;;;1.13;;
15354;SDS011;7777;52.254;9.618;2022-09-21T16:26:54;2.83;;;1.13;;
15354;SDS011;7777;52.254;9.618;2022-09-21T16:29:23;3.33;;;1.13;;
15354;SDS011;7777;52.254;9.618;2022-09-21T16:32:18;4.70;;;1.00;;
15354;SDS011;7777;52.254;9.618;2022-09-21T16:34:52;5.10;;;1.17;;
15354;SDS011;7777;52.254;9.618;2022-09-21T16:37:58;2.37;;;1.10;;
15354;SDS011;7777;52.254;9.618;2022-09-21T16:40:24;3.33;;;1.33;;
15354;SDS011;7777;52.254;9.618;2022-09-21T16:42:51;6.40;;;1.37;;
15354;SDS011;7777;52.254;9.618;2022-09-21T16:45:28;2.23;;;1.00;;
15354;SDS011;7777;52.254;9.618;2022-09-21T16:47:55;4.37;;;1.73;;
15354;SDS011;7777;52.254;9.618;2022-09-21T16:50:24;2.73;;;1.47;;
15354;SDS011;7777;52.254;9.618;2022-09-21T16:52:49;4.50;;;2.23;;
15354;SDS011;7777;52.254;9.618;2022-09-21T16:55:16;2.73;;;1.23;;
15354;SDS011;7777;52.254;9.618;2022-09-21T16:57:45;8.20;;;1.40;;
15354;SDS011;7777;52.254;9.618;2022-09-21T17:00:13;3.87;;;1.30;;
15354;SDS011;7777;52.254;9.618;2022-09-21T17:02:44;3.63;;;1.00;;
15354;SDS011;7777;52.254;9.618;2022-09-21T17:05:12;3.13;;;1.13;;
15354;SDS011;7777;52.254;9.618;2022-09-21T17:07:51;5.97;;;1.40;;
15354;SDS011;7777;52.254;9.618;2022-09-21T17:10:22;4.50;;;1.63;;
15354;SDS011;7777;52.254;9.618;2022-09-21T17:12:53;3.47;;;1.60;;
15354;SDS011;7777;52.254;9.618;2022-09-21T17:15:20;3.37;;;1.83;;
15354;SDS011;7777;52.254;9.618;2022-09-21T17:17:46;12.67;;;2.67;;
15354;SDS011;7777;52.254;9.618;2022-09-21T17:20:32;7.13;;;2.30;;
15354;SDS011;7777;52.254;9.618;2022-09-21T17:23:03;5.67;;;2.40;;
15354;SDS011;7777;52.254;9.618;2022-09-21T17:25:30;7.97;;;2.03;;
15354;SDS011;7777;52.254;9.618;2022-09-21T17:27:57;4.33;;;1.47;;
15354;SDS011;7777;52.254;9.618;2022-09-21T17:30:24;3.10;;;1.37;;
15354;SDS011;7777;52.254;9.618;2022-09-21T17:32:51;5.37;;;1.50;;
15354;SDS011;7777;52.254;9.618;2022-09-21T17:35:21;3.70;;;2.33;;
15354;SDS011;7777;52.254;9.618;2022-09-21T17:37:55;7.97;;;3.40;;
15354;SDS011;7777;52.254;9.618;2022-09-21T17:40:22;7.40;;;3.73;;
15354;SDS011;7777;52.254;9.618;2022-09-21T17:42:48;5.23;;;3.67;;
15354;SDS011;7777;52.254;9.618;2022-09-21T17:45:20;6.07;;;3.60;;
15354;SDS011;7777;52.254;9.618;2022-09-21T17:48:03;6.70;;;2.60;;
15354;SDS011;7777;52.254;9.618;2022-09-21T17:50:29;3.90;;;2.30;;
15354;SDS011;7777;52.254;9.618;2022-09-21T17:52:56;8.37;;;2.17;;
15354;SDS011;7777;52.254;9.618;2022-09-21T17:55:46;4.80;;;2.50;;
15354;SDS011;7777;52.254;9.618;2022-09-21T18:01:14;11.63;;;6.60;;
15354;SDS011;7777;52.254;9.618;2022-09-21T18:03:56;9.50;;;7.60;;
15354;SDS011;7777;52.254;9.618;2022-09-21T18:06:22;11.17;;;5.70;;
15354;SDS011;7777;52.254;9.618;2022-09-21T18:08:48;9.83;;;5.20;;
15354;SDS011;7777;52.254;9.618;2022-09-21T18:14:23;5.83;;;3.13;;
15354;SDS011;7777;52.254;9.618;2022-09-21T18:17:17;8.77;;;2.57;;
15354;SDS011;7777;52.254;9.618;2022-09-21T18:23:08;3.10;;;1.37;;
15354;SDS011;7777;52.254;9.618;2022-09-21T18:25:50;3.23;;;1.50;;
15354;SDS011;7777;52.254;9.618;2022-09-21T18:28:22;7.80;;;1.60;;
15354;SDS011;7777;52.254;9.618;2022-09-21T18:45:58;3.80;;;2.20;;
15354;SDS011;7777;52.254;9.618;2022-09-21T18:54:17;4.17;;;2.00;;
15354;SDS011;7777;52.254;9.618;2022-09-21T18:56:46;5.27;;;3.00;;
15354;SDS011;7777;52.254;9.618;2022-09-21T18:59:12;6.87;;;3.00;;
15354;SDS011;7777;52.254;9.618;2022-09-21T19:01:39;7.43;;;3.70;;
15354;SDS011;7777;52.254;9.618;2022-09-21T19:04:07;10.60;;;4.53;;
15354;SDS011;7777;52.254;9.618;2022-09-21T19:06:40;12.57;;;6.17;;
15354;SDS011;7777;52.254;9.618;2022-09-21T19:14:49;9.03;;;3.27;;
15354;SDS011;7777;52.254;9.618;2022-09-21T19:17:43;5.50;;;2.63;;
15354;SDS011;7777;52.254;9.618;2022-09-21T19:26:17;3.83;;;2.33;;
15354;SDS011;7777;52.254;9.618;2022-09-21T19:32:17;4.97;;;2.13;;
15354;SDS011;7777;52.254;9.618;2022-09-21T19:34:53;3.63;;;1.70;;
15354;SDS011;7777;52.254;9.618;2022-09-21T19:37:21;3.33;;;1.60;;
15354;SDS011;7777;52.254;9.618;2022-09-21T19:39:46;4.30;;;1.80;;
15354;SDS011;7777;52.254;9.618;2022-09-21T19:42:16;4.70;;;2.10;;
15354;SDS011;7777;52.254;9.618;2022-09-21T19:47:49;3.00;;;1.80;;
15354;SDS011;7777;52.254;9.618;2022-09-21T19:50:22;2.73;;;1.70;;
15354;SDS011;7777;52.254;9.618;2022-09-21T19:52:58;3.77;;;1.60;;
15354;SDS011;7777;52.254;9.618;2022-09-21T19:55:43;4.60;;;1.80;;